Latest Coastal Weather Observations for Gladstone

IDQ60701

Issued at 8:12 am EST Saturday 23 May 2015 (issued every 10 minutes, with the page automatically refreshed every 10 minutes)

About coastal observations | Map of coastal stations | Coastal observations for QLD | Marine services | Other Formats
Station Details ID: 039123 Name: GLADSTONE RADAR Lat: -23.86 Lon: 151.26 Height: 74.5 m
Data from the previous 72 hours. | See also: Recent months at Gladstone
Date/Time
EST
Temp

°C
Wind Pressure Rain
since 9am
mm
Weather Cloud Vis
km
Sea
Height
m
Swell
Dir
 
Speed
knots
Gust
knots
hPa Trend Height
m
Period
s
Dir
23/08:00am 15.2 S 6 11 1021.0 - 0.0 - - - - - - -
23/07:30am 14.0 SW 8 15 1020.6 - 0.0 - - - - - - -
23/07:00am 13.3 SW 7 14 1020.5 - 0.0 - - - - - - -
23/06:30am 13.1 SW 6 12 1020.1 - 0.0 - - - - - - -
23/06:00am 13.5 SSW 8 14 1019.7 - 0.0 - - - - - - -
23/05:30am 13.5 SSW 8 14 1019.4 - 0.0 - - - - - - -
23/05:00am 13.3 SW 9 13 1019.2 - 0.0 - - - - - - -
23/04:30am 13.3 SW 7 12 1019.3 - 0.0 - - - - - - -
23/04:00am 13.3 SW 7 13 1019.3 - 0.0 - - - - - - -
23/03:30am 12.7 SW 5 8 1019.2 - 0.0 - - - - - - -
23/03:00am 13.2 SW 5 9 1019.4 - 0.0 - - - - - - -
23/02:30am 13.2 SW 8 12 1019.3 - 0.0 - - - - - - -
23/02:00am 13.1 SW 7 12 1019.8 - 0.0 - - - - - - -
23/01:30am 13.1 SW 8 11 1019.9 - 0.0 - - - - - - -
23/01:00am 13.4 SW 9 13 1020.1 - 0.0 - - - - - - -
23/12:30am 13.1 WSW 5 8 1020.5 - 0.0 - - - - - - -
23/12:00am 13.2 SW 5 10 1020.8 - 0.0 - - - - - - -
 
Date/Time
EST
Temp

°C
Wind Pressure Rain
since 9am
mm
Weather Cloud Vis
km
Sea
Height
m
Swell
Dir
 
Speed
knots
Gust
knots
hPa Trend Height
m
Period
s
Dir
22/11:30pm 13.5 WSW 5 7 1021.1 - 0.0 - - - - - - -
22/11:00pm 13.9 SW 6 10 1021.2 - 0.0 - - - - - - -
22/10:30pm 14.2 SW 8 12 1021.4 - 0.0 - - - - - - -
22/10:00pm 14.8 SSW 10 16 1021.5 - 0.0 - - - - - - -
22/09:30pm 15.0 SSW 10 20 1021.5 - 0.0 - - - - - - -
22/09:00pm 15.4 SW 9 16 1020.9 - 0.0 - - - - - - -
22/08:30pm 15.9 SW 7 12 1020.7 - 0.0 - - - - - - -
22/08:00pm 16.5 SW 7 10 1020.4 - 0.0 - - - - - - -
22/07:30pm 17.0 SW 7 12 1020.0 - 0.0 - - - - - - -
22/07:00pm 17.2 SW 7 12 1019.5 - 0.0 - - - - - - -
22/06:30pm 17.4 WSW 5 8 1018.9 - 0.0 - - - - - - -
22/06:00pm 18.0 WSW 6 9 1018.5 - 0.0 - - - - - - -
22/05:30pm 18.8 WSW 7 13 1018.0 - 0.0 - - - - - - -
22/05:00pm 19.7 WSW 7 13 1017.4 - 0.0 - - - - - - -
22/04:30pm 20.9 WSW 8 15 1017.2 - 0.0 - - - - - - -
22/04:00pm 21.9 WSW 7 16 1016.8 - 0.0 - - - - - - -
22/03:30pm 22.9 WSW 8 17 1016.5 - 0.0 - - - - - - -
22/03:00pm 23.4 WSW 9 15 1016.3 - 0.0 - - - - - - -
22/02:30pm 24.1 WSW 7 15 1016.3 - 0.0 - - - - - - -
22/02:00pm 23.9 W 8 15 1016.4 - 0.0 - - - - - - -
22/01:30pm 23.9 WSW 8 16 1016.6 - 0.0 - - - - - - -
22/01:00pm 22.8 WSW 8 13 1016.9 - 0.0 - - - - - - -
22/12:30pm 22.7 SW 9 16 1017.3 - 0.0 - - - - - - -
22/12:00pm 22.6 SW 8 17 1017.8 - 0.0 - - - - - - -
22/11:30am 21.9 SW 9 16 1018.0 - 0.0 - - - - - - -
22/11:00am 21.4 WSW 9 15 1018.2 - 0.0 - - - - - - -
22/10:30am 21.6 SW 6 12 1018.6 - 0.0 - - - - - - -
22/10:00am 20.6 SW 7 12 1018.7 - 0.0 - - - - - - -
22/09:30am 19.9 SW 5 10 1018.7 - 0.0 - - - - - - -
22/09:00am 19.0 SSW 7 13 1018.5 - 6.2 - - - - - - -
22/08:30am 18.3 SW 6 11 1018.5 - 6.2 - - - - - - -
22/08:00am 17.7 SW 3 6 1018.5 - 6.2 - - - - - - -
22/07:30am 17.4 SW 5 9 1018.2 - 6.2 - - - - - - -
22/07:00am 17.2 WSW 3 6 1017.8 - 6.2 - - - - - - -
22/06:30am 17.5 SW 5 9 1017.3 - 6.2 - - - - - - -
22/06:00am 17.7 SW 6 9 1016.9 - 6.2 - - - - - - -
22/05:30am 17.7 SW 5 8 1016.3 - 6.2 - - - - - - -
22/05:00am 18.0 SSW 5 9 1016.1 - 6.2 - - - - - - -
22/04:30am 17.9 SSW 4 7 1016.1 - 6.2 - - - - - - -
22/04:00am 17.9 SW 6 10 1016.0 - 6.2 - - - - - - -
22/03:30am 17.7 SW 5 8 1016.0 - 6.2 - - - - - - -
22/03:00am 17.7 SW 6 12 1016.0 - 6.2 - - - - - - -
22/02:30am 17.7 SSW 10 17 1015.8 - 6.2 - - - - - - -
22/02:00am 17.6 SW 9 18 1016.5 - 6.2 - - - - - - -
22/01:30am 17.9 WSW 8 11 1016.9 - 5.8 - - - - - - -
22/01:00am 18.1 SW 7 14 1016.5 - 5.2 - - - - - - -
22/12:30am 19.3 SW 9 17 1016.5 - 1.4 - - - - - - -
22/12:00am 21.6 WSW 4 7 1016.7 - 0.2 - - - - - - -
 
Date/Time
EST
Temp

°C
Wind Pressure Rain
since 9am
mm
Weather Cloud Vis
km
Sea
Height
m
Swell
Dir
 
Speed
knots
Gust
knots
hPa Trend Height
m
Period
s
Dir
21/11:30pm 21.6 WSW 3 4 1016.9 - 0.2 - - - - - - -
21/11:00pm 21.4 SW 4 5 1017.2 - 0.2 - - - - - - -
21/10:30pm 21.5 SW 3 4 1017.4 - 0.2 - - - - - - -
21/10:00pm 21.5 WNW 3 5 1017.2 - 0.2 - - - - - - -
21/09:30pm 21.5 WNW 4 6 1017.4 - 0.2 - - - - - - -
21/09:00pm 21.9 NNW 5 7 1017.2 - 0.2 - - - - - - -
21/08:30pm 21.7 NW 5 6 1017.3 - 0.2 - - - - - - -
21/08:00pm 21.8 NNW 5 6 1017.1 - 0.2 - - - - - - -
21/07:30pm 21.7 NW 3 5 1017.0 - 0.2 - - - - - - -
21/07:00pm 21.9 N 2 4 1016.7 - 0.2 - - - - - - -
21/06:30pm 22.0 NNE 4 8 1016.5 - 0.2 - - - - - - -
21/06:00pm 22.3 N 4 7 1016.1 - 0.2 - - - - - - -
21/05:30pm 22.7 NNE 4 8 1015.8 - 0.2 - - - - - - -
21/05:00pm 23.4 NNE 6 10 1015.5 - 0.2 - - - - - - -
21/04:30pm 24.0 NE 5 11 1015.5 - 0.2 - - - - - - -
21/04:00pm 24.5 NE 6 12 1015.4 - 0.2 - - - - - - -
21/03:30pm 24.9 NE 7 13 1015.4 - 0.2 - - - - - - -
21/03:00pm 25.5 NE 7 12 1015.3 - 0.2 - - - - - - -
21/02:30pm 25.9 NE 7 12 1015.5 - 0.2 - - - - - - -
21/02:00pm 27.0 NNE 6 11 1015.7 - 0.2 - - - - - - -
21/01:30pm 27.4 NE 6 10 1016.0 - 0.2 - - - - - - -
21/01:00pm 27.4 NE 6 10 1016.3 - 0.2 - - - - - - -
21/12:30pm 28.1 NE 6 9 1017.0 - 0.2 - - - - - - -
21/12:00pm 27.6 NE 5 8 1017.7 - 0.2 - - - - - - -
21/11:30am 27.2 NE 3 5 1018.1 - 0.2 - - - - - - -
21/11:00am 27.4 NNE 3 5 1018.4 - 0.2 - - - - - - -
21/10:30am 25.5 NW 4 7 1018.7 - 0.2 - - - - - - -
21/10:00am 24.7 NNW 5 8 1019.1 - 0.0 - - - - - - -
21/09:30am 23.9 WSW 2 4 1019.5 - 0.0 - - - - - - -
21/09:00am 22.5 CALM 0 4 1019.5 - 0.0 - - - - - - -
21/08:30am 21.6 W 2 5 1019.5 - 0.0 - - - - - - -
21/08:00am 21.0 W 2 4 1019.2 - 0.0 - - - - - - -
21/07:30am 20.5 SW 3 5 1019.2 - 0.0 - - - - - - -
21/07:00am 19.9 SW 4 5 1018.9 - 0.0 - - - - - - -
21/06:30am 19.6 WSW 4 5 1018.6 - 0.0 - - - - - - -
21/06:00am 19.7 SW 4 5 1018.0 - 0.0 - - - - - - -
21/05:30am 19.5 SW 5 6 1017.8 - 0.0 - - - - - - -
21/05:00am 19.3 SW 5 6 1017.8 - 0.0 - - - - - - -
21/04:30am 19.5 CALM 0 0 1017.8 - 0.0 - - - - - - -
21/04:00am 20.5 ESE 1 4 1017.6 - 0.0 - - - - - - -
21/03:30am 19.7 SSW 5 5 1017.6 - 0.0 - - - - - - -
21/03:00am 19.7 S 5 6 1017.9 - 0.0 - - - - - - -
21/02:30am 20.3 SSE 5 6 1017.8 - 0.0 - - - - - - -
21/02:00am 20.1 SE 4 6 1018.1 - 0.0 - - - - - - -
21/01:30am 20.4 SSE 6 7 1018.5 - 0.0 - - - - - - -
21/01:00am 20.5 SSE 5 6 1018.6 - 0.0 - - - - - - -
21/12:30am 20.6 SSE 6 7 1018.7 - 0.0 - - - - - - -
21/12:00am 20.5 SE 5 6 1018.8 - 0.0 - - - - - - -
 
Date/Time
EST
Temp

°C
Wind Pressure Rain
since 9am
mm
Weather Cloud Vis
km
Sea
Height
m
Swell
Dir
 
Speed
knots
Gust
knots
hPa Trend Height
m
Period
s
Dir
20/11:30pm 20.5 ESE 4 5 1019.1 - 0.0 - - - - - - -
20/11:00pm 20.7 SE 4 5 1019.3 - 0.0 - - - - - - -
20/10:30pm 20.4 S 3 4 1019.6 - 0.0 - - - - - - -
20/10:00pm 20.5 S 4 5 1019.6 - 0.0 - - - - - - -
20/09:30pm 20.6 S 6 7 1019.5 - 0.0 - - - - - - -
20/09:00pm 20.6 SSE 5 7 1019.5 - 0.0 - - - - - - -
20/08:30pm 20.8 ESE 5 7 1019.5 - 0.0 - - - - - - -
20/08:00pm 20.8 E 6 7 1019.4 - 0.0 - - - - - - -
20/07:30pm 20.8 E 6 8 1019.0 - 0.0 - - - - - - -
20/07:00pm 20.9 E 6 8 1018.6 - 0.0 - - - - - - -
20/06:30pm 21.0 E 5 7 1018.5 - 0.0 - - - - - - -
20/06:00pm 21.1 ENE 6 9 1018.0 - 0.0 - - - - - - -
20/05:30pm 21.4 ENE 7 9 1017.8 - 0.0 - - - - - - -
20/05:00pm 22.1 ENE 6 9 1017.6 - 0.0 - - - - - - -
20/04:30pm 23.3 ENE 8 11 1017.2 - 0.0 - - - - - - -
20/04:00pm 24.1 ENE 8 12 1017.1 - 0.0 - - - - - - -
20/03:30pm 24.8 ENE 7 11 1016.9 - 0.0 - - - - - - -
20/03:00pm 25.9 ENE 7 10 1017.0 - 0.0 - - - - - - -
20/02:30pm 26.0 ENE 7 9 1017.2 - 0.0 - - - - - - -
20/02:00pm 26.2 ENE 6 9 1017.4 - 0.0 - - - - - - -
20/01:30pm 26.7 ENE 5 8 1017.6 - 0.0 - - - - - - -
20/01:00pm 25.8 ENE 7 11 1018.0 - 0.0 - - - - - - -
20/12:30pm 26.1 ENE 7 11 1018.5 - 0.0 - - - - - - -
20/12:00pm 26.2 ENE 8 11 1018.7 - 0.0 - - - - - - -
20/11:30am 25.9 ENE 8 12 1019.0 - 0.0 - - - - - - -
20/11:00am 26.0 ENE 8 11 1019.2 - 0.0 - - - - - - -
20/10:30am 25.7 ENE 6 9 1019.6 - 0.0 - - - - - - -
20/10:00am 25.3 ENE 6 8 1020.0 - 0.0 - - - - - - -
20/09:30am 24.5 E 5 7 1020.0 - 0.0 - - - - - - -
20/09:00am 23.4 ESE 4 7 1020.0 - 0.0 - - - - - - -
20/08:30am 22.4 SE 4 6 1020.0 - 0.0 - - - - - - -

Other Formats:

Comma delimited format used in spreadsheet applications
http://www.bom.gov.au/fwo/IDQ60701/IDQ60701.94380.axf

JavaScript Object Notation format (JSON) in row-major order
http://www.bom.gov.au/fwo/IDQ60701/IDQ60701.94380.json